Terminal Aerodrome Forecast
Issued by NWS Billings, MT

Home | Current Version | Previous Version | Text Only | Print | Product List | Glossary Off
Versions: 1 2 3 4 5 6 7 8 9 10 11 12 13 14 15 16 17 18 19 20 21 22 23 24 25 26 27 28 29 30 31 32

682
FTUS45 KBYZ 212145 AAA
TAFMLS
TAF AMD
KMLS 212145Z 2122/2218 29010G17KT P6SM FEW090
     FM220000 VRB06KT P6SM FEW090
     FM220600 31010KT P6SM FEW100
     FM221600 31018G26KT P6SM FEW250=

USA.gov is the U.S. government's official web portal to all federal, state and local government web resources and services.